Crosby Wave — WDH3388 — position and weather

sailwx.info

Track history (hours):
 
Tides and Currents Weather Stations Pressure Air Temp Water Temp Dewpoint Dewpoint Depression Visibility Wind Speed Wind Dir Waves Ship Positions

Crosby Wave

Owner: Crosby Marine Transportation, LLC, Galliano, LA. More information available from US FCC via Universal Licensing System and Coast Guard Vessel Documentation Center.

Last reported at 2017-Nov-23 23:59 UTC. Time now 2017-Nov-24 00:21 UTC.
Position N 36°50' W 076°16'.

; draft 3.8 m.

Type: Towing. MMSI: 367126540.

Date/timePositionNaut miles runAvg speedWind from/ knotsBaromVisibWave heightAir tempDewpointWater temp
2017-Nov-23 23:59N 36°50' W 076°16'0 0.0
2017-Nov-23 23:29N 36°50' W 076°16'0 0.0
2017-Nov-23 22:59N 36°50' W 076°16'0 0.0
2017-Nov-23 22:29N 36°50' W 076°16'0 0.0
2017-Nov-23 21:59N 36°50' W 076°16'0 0.0
2017-Nov-23 21:29N 36°50' W 076°16'0 0.0
2017-Nov-23 20:59N 36°50' W 076°16'0 0.0
2017-Nov-23 20:29N 36°50' W 076°16'0 0.0
2017-Nov-23 19:59N 36°50' W 076°16'0 0.0
2017-Nov-23 19:29N 36°50' W 076°16'0 0.0
2017-Nov-23 18:59N 36°50' W 076°16'0 0.0
2017-Nov-23 18:29N 36°50' W 076°16'0 0.0
2017-Nov-23 17:59N 36°50' W 076°16'0 0.0
2017-Nov-23 17:29N 36°50' W 076°16'0 0.0
2017-Nov-23 16:59N 36°50' W 076°16'0 0.0
2017-Nov-23 16:29N 36°50' W 076°16'0 0.0
2017-Nov-23 15:59N 36°50' W 076°16'0 0.0
2017-Nov-23 15:29N 36°50' W 076°16'0 0.0
2017-Nov-23 14:59N 36°50' W 076°16'0 0.0
2017-Nov-23 14:29N 36°50' W 076°16'0 0.0
2017-Nov-23 13:59N 36°50' W 076°16'0 0.0
2017-Nov-23 13:29N 36°50' W 076°16'0 0.0
2017-Nov-23 12:59N 36°50' W 076°16'0 0.0
2017-Nov-23 12:29N 36°50' W 076°16'0 0.0
2017-Nov-23 11:59N 36°50' W 076°16'0 0.0
2017-Nov-23 11:29N 36°50' W 076°16'0 0.0
2017-Nov-23 10:59N 36°50' W 076°16'0 0.0
2017-Nov-23 10:29N 36°50' W 076°16'0 0.0
2017-Nov-23 09:59N 36°50' W 076°16'0 0.0
2017-Nov-23 09:29N 36°50' W 076°16'0 0.0
2017-Nov-23 08:59N 36°50' W 076°16'0 0.0
2017-Nov-23 08:29N 36°50' W 076°16'0 0.0
2017-Nov-23 07:59N 36°50' W 076°16'0 0.0
2017-Nov-23 07:29N 36°50' W 076°16'0 0.0
2017-Nov-23 06:59N 36°50' W 076°16'0 0.0
2017-Nov-23 06:29N 36°50' W 076°16'0 0.0
2017-Nov-23 05:59N 36°50' W 076°16'0 0.0
2017-Nov-23 05:29N 36°50' W 076°16'0 0.0
2017-Nov-23 04:59N 36°50' W 076°16'0 0.0
2017-Nov-23 04:29N 36°50' W 076°16'0 0.0
2017-Nov-23 03:59N 36°50' W 076°16'0 0.0
2017-Nov-23 03:29N 36°50' W 076°16'0 0.0
2017-Nov-23 02:59N 36°50' W 076°16'0 0.0
2017-Nov-23 02:29N 36°50' W 076°16'0 0.0
2017-Nov-23 01:59N 36°50' W 076°16'0 0.0
2017-Nov-23 01:29N 36°50' W 076°16'0 0.0
2017-Nov-23 00:59N 36°50' W 076°16'0 0.0
2017-Nov-23 00:29N 36°50' W 076°16'0 0.0
2017-Nov-22 23:53N 36°50' W 076°16'0 0.0
2017-Nov-22 23:29N 36°50' W 076°16'0 0.0
2017-Nov-22 22:59N 36°50' W 076°16'0 0.0
2017-Nov-22 22:29N 36°50' W 076°16'0 0.0
2017-Nov-22 21:59N 36°50' W 076°16'0 0.0
2017-Nov-22 21:29N 36°50' W 076°16'  
2017-Nov-15 21:19N 36°50' W 076°16'1 3.0
2017-Nov-15 21:00N 36°51' W 076°17'3 5.7
2017-Nov-15 20:25N 36°53' W 076°20'2 4.3
2017-Nov-15 20:00N 36°52' W 076°19'2 3.5
2017-Nov-15 19:28N 36°50' W 076°18'0 0.0
2017-Nov-15 18:58N 36°50' W 076°18'0 0.0
2017-Nov-15 18:28N 36°50' W 076°18'0 0.0
2017-Nov-15 17:58N 36°50' W 076°18'0 0.1
2017-Nov-15 17:28N 36°50' W 076°18'0 0.0
2017-Nov-15 16:58N 36°50' W 076°18'0 0.0
2017-Nov-15 16:28N 36°50' W 076°18'0 0.1
2017-Nov-15 15:58N 36°50' W 076°18'0 0.1
2017-Nov-15 15:28N 36°50' W 076°18'0 0.0
2017-Nov-15 14:58N 36°50' W 076°18'0 0.0
2017-Nov-15 14:25N 36°50' W 076°18'0 0.0
2017-Nov-15 13:58N 36°50' W 076°18'0 0.7
2017-Nov-15 13:30N 36°50' W 076°18'2 4.4
2017-Nov-15 13:00N 36°52' W 076°19'2 3.3
2017-Nov-15 12:29N 36°53' W 076°20'0 0.5
2017-Nov-15 12:00N 36°53' W 076°20'3 6.6
2017-Nov-15 11:30N 36°50' W 076°18'1 2.2
2017-Nov-15 10:59N 36°50' W 076°16'0 0.0
2017-Nov-15 10:21N 36°50' W 076°16'0 0.0
2017-Nov-15 09:38N 36°50' W 076°16'0 0.0
2017-Nov-15 09:15N 36°50' W 076°16'0 0.0
2017-Nov-15 08:57N 36°50' W 076°16'0 0.0
2017-Nov-15 08:27N 36°50' W 076°16'0 0.0
2017-Nov-15 07:51N 36°50' W 076°16'0 0.0
2017-Nov-15 07:27N 36°50' W 076°16'0 0.0
2017-Nov-15 06:51N 36°50' W 076°16'0 0.0
2017-Nov-15 06:15N 36°50' W 076°16'0 0.0
2017-Nov-15 05:51N 36°50' W 076°16'0 0.0
2017-Nov-15 05:27N 36°50' W 076°16'0 0.0
2017-Nov-15 04:50N 36°50' W 076°16'0 0.0
2017-Nov-15 04:27N 36°50' W 076°16'0 0.0
2017-Nov-15 03:57N 36°50' W 076°16'0 0.0
2017-Nov-15 03:26N 36°50' W 076°16'0 0.0
2017-Nov-15 02:59N 36°50' W 076°16'0 0.0
2017-Nov-15 01:50N 36°50' W 076°16'0 0.0
2017-Nov-15 01:20N 36°50' W 076°16'0 0.0
2017-Nov-15 00:57N 36°50' W 076°16'0 0.0
2017-Nov-15 00:21N 36°50' W 076°16'0 0.0
2017-Nov-14 23:56N 36°50' W 076°16'0 0.0
2017-Nov-14 23:14N 36°50' W 076°16'0 0.0
2017-Nov-14 22:56N 36°50' W 076°16'0 0.0
2017-Nov-14 22:26N 36°50' W 076°16'0 0.0
2017-Nov-14 21:26N 36°50' W 076°16'1 3.1
2017-Nov-14 21:00N 36°51' W 076°18'3 6.1
2017-Nov-14 20:30N 36°53' W 076°20'3 2.6
2017-Nov-14 19:23N 36°56' W 076°20'1 1.7
2017-Nov-14 18:52N 36°55' W 076°20'3 7.5
2017-Nov-14 18:30N 36°52' W 076°20'3 6.6
2017-Nov-14 18:00N 36°50' W 076°17'0 0.9
2017-Nov-14 17:30N 36°50' W 076°16'0 0.0
2017-Nov-14 17:00N 36°50' W 076°16'0 0.0
2017-Nov-14 16:30N 36°50' W 076°16'0 0.0
2017-Nov-14 16:00N 36°50' W 076°16'0 0.0
2017-Nov-14 15:30N 36°50' W 076°16'0 0.0
2017-Nov-14 15:00N 36°50' W 076°16'0 0.0
2017-Nov-14 14:30N 36°50' W 076°16'0 0.0
2017-Nov-14 14:00N 36°50' W 076°16'0 0.0
2017-Nov-14 13:30N 36°50' W 076°16'0 0.0
2017-Nov-14 13:00N 36°50' W 076°16'0 0.0
2017-Nov-14 12:30N 36°50' W 076°16'0 0.0
2017-Nov-14 12:00N 36°50' W 076°16'0 0.0
2017-Nov-14 11:30N 36°50' W 076°16'0 0.0
2017-Nov-14 10:48N 36°50' W 076°16'0 0.0
2017-Nov-14 10:30N 36°50' W 076°16'0 0.0
2017-Nov-14 10:00N 36°50' W 076°16'0 0.0
2017-Nov-14 09:30N 36°50' W 076°16'0 0.0
2017-Nov-14 09:00N 36°50' W 076°16'0 0.0
2017-Nov-14 08:30N 36°50' W 076°16'0 0.0
2017-Nov-14 08:00N 36°50' W 076°16'0 0.0
2017-Nov-14 07:30N 36°50' W 076°16'0 0.0
2017-Nov-14 07:00N 36°50' W 076°16'0 0.0
2017-Nov-14 06:30N 36°50' W 076°16'0 0.0
2017-Nov-14 06:00N 36°50' W 076°16'0 0.0
2017-Nov-14 05:30N 36°50' W 076°16'0 0.0
2017-Nov-14 05:00N 36°50' W 076°16'0 0.0
2017-Nov-14 04:30N 36°50' W 076°16'0 0.0
2017-Nov-14 04:00N 36°50' W 076°16'0 0.0
2017-Nov-14 03:30N 36°50' W 076°16'0 0.0
2017-Nov-14 03:00N 36°50' W 076°16'0 0.0
2017-Nov-14 02:30N 36°50' W 076°16'0 0.0
2017-Nov-14 02:00N 36°50' W 076°16'0 0.0
2017-Nov-14 01:30N 36°50' W 076°16'0 0.0
2017-Nov-14 01:00N 36°50' W 076°16'0 0.0
2017-Nov-14 00:30N 36°50' W 076°16'  
Track history (hours):
 
Tides and Currents Weather Stations Pressure Air Temp Water Temp Dewpoint Dewpoint Depression Visibility Wind Speed Wind Dir Waves Ship Positions

Crosby Wave

Owner: Crosby Marine Transportation, LLC, Galliano, LA. More information available from US FCC via Universal Licensing System and Coast Guard Vessel Documentation Center.

Last reported at 2017-Nov-23 23:59 UTC. Time now 2017-Nov-24 00:21 UTC.
Position N 36°50' W 076°16'.

; draft 3.8 m.

Type: Towing. MMSI: 367126540.

Date/timePositionNaut miles runAvg speedWind from/ knotsBaromVisibWave heightAir tempDewpointWater temp
2017-Nov-23 23:59N 36°50' W 076°16'0 0.0
2017-Nov-23 23:29N 36°50' W 076°16'0 0.0
2017-Nov-23 22:59N 36°50' W 076°16'0 0.0
2017-Nov-23 22:29N 36°50' W 076°16'0 0.0
2017-Nov-23 21:59N 36°50' W 076°16'0 0.0
2017-Nov-23 21:29N 36°50' W 076°16'0 0.0
2017-Nov-23 20:59N 36°50' W 076°16'0 0.0
2017-Nov-23 20:29N 36°50' W 076°16'0 0.0
2017-Nov-23 19:59N 36°50' W 076°16'0 0.0
2017-Nov-23 19:29N 36°50' W 076°16'0 0.0
2017-Nov-23 18:59N 36°50' W 076°16'0 0.0
2017-Nov-23 18:29N 36°50' W 076°16'0 0.0
2017-Nov-23 17:59N 36°50' W 076°16'0 0.0
2017-Nov-23 17:29N 36°50' W 076°16'0 0.0
2017-Nov-23 16:59N 36°50' W 076°16'0 0.0
2017-Nov-23 16:29N 36°50' W 076°16'0 0.0
2017-Nov-23 15:59N 36°50' W 076°16'0 0.0
2017-Nov-23 15:29N 36°50' W 076°16'0 0.0
2017-Nov-23 14:59N 36°50' W 076°16'0 0.0
2017-Nov-23 14:29N 36°50' W 076°16'0 0.0
2017-Nov-23 13:59N 36°50' W 076°16'0 0.0
2017-Nov-23 13:29N 36°50' W 076°16'0 0.0
2017-Nov-23 12:59N 36°50' W 076°16'0 0.0
2017-Nov-23 12:29N 36°50' W 076°16'0 0.0
2017-Nov-23 11:59N 36°50' W 076°16'0 0.0
2017-Nov-23 11:29N 36°50' W 076°16'0 0.0
2017-Nov-23 10:59N 36°50' W 076°16'0 0.0
2017-Nov-23 10:29N 36°50' W 076°16'0 0.0
2017-Nov-23 09:59N 36°50' W 076°16'0 0.0
2017-Nov-23 09:29N 36°50' W 076°16'0 0.0
2017-Nov-23 08:59N 36°50' W 076°16'0 0.0
2017-Nov-23 08:29N 36°50' W 076°16'0 0.0
2017-Nov-23 07:59N 36°50' W 076°16'0 0.0
2017-Nov-23 07:29N 36°50' W 076°16'0 0.0
2017-Nov-23 06:59N 36°50' W 076°16'0 0.0
2017-Nov-23 06:29N 36°50' W 076°16'0 0.0
2017-Nov-23 05:59N 36°50' W 076°16'0 0.0
2017-Nov-23 05:29N 36°50' W 076°16'0 0.0
2017-Nov-23 04:59N 36°50' W 076°16'0 0.0
2017-Nov-23 04:29N 36°50' W 076°16'0 0.0
2017-Nov-23 03:59N 36°50' W 076°16'0 0.0
2017-Nov-23 03:29N 36°50' W 076°16'0 0.0
2017-Nov-23 02:59N 36°50' W 076°16'0 0.0
2017-Nov-23 02:29N 36°50' W 076°16'0 0.0
2017-Nov-23 01:59N 36°50' W 076°16'0 0.0
2017-Nov-23 01:29N 36°50' W 076°16'0 0.0
2017-Nov-23 00:59N 36°50' W 076°16'0 0.0
2017-Nov-23 00:29N 36°50' W 076°16'0 0.0
2017-Nov-22 23:53N 36°50' W 076°16'0 0.0
2017-Nov-22 23:29N 36°50' W 076°16'0 0.0
2017-Nov-22 22:59N 36°50' W 076°16'0 0.0
2017-Nov-22 22:29N 36°50' W 076°16'0 0.0
2017-Nov-22 21:59N 36°50' W 076°16'0 0.0
2017-Nov-22 21:29N 36°50' W 076°16'  
2017-Nov-15 21:19N 36°50' W 076°16'1 3.0
2017-Nov-15 21:00N 36°51' W 076°17'3 5.7
2017-Nov-15 20:25N 36°53' W 076°20'2 4.3
2017-Nov-15 20:00N 36°52' W 076°19'2 3.5
2017-Nov-15 19:28N 36°50' W 076°18'0 0.0
2017-Nov-15 18:58N 36°50' W 076°18'0 0.0
2017-Nov-15 18:28N 36°50' W 076°18'0 0.0
2017-Nov-15 17:58N 36°50' W 076°18'0 0.1
2017-Nov-15 17:28N 36°50' W 076°18'0 0.0
2017-Nov-15 16:58N 36°50' W 076°18'0 0.0
2017-Nov-15 16:28N 36°50' W 076°18'0 0.1
2017-Nov-15 15:58N 36°50' W 076°18'0 0.1
2017-Nov-15 15:28N 36°50' W 076°18'0 0.0
2017-Nov-15 14:58N 36°50' W 076°18'0 0.0
2017-Nov-15 14:25N 36°50' W 076°18'0 0.0
2017-Nov-15 13:58N 36°50' W 076°18'0 0.7
2017-Nov-15 13:30N 36°50' W 076°18'2 4.4
2017-Nov-15 13:00N 36°52' W 076°19'2 3.3
2017-Nov-15 12:29N 36°53' W 076°20'0 0.5
2017-Nov-15 12:00N 36°53' W 076°20'3 6.6
2017-Nov-15 11:30N 36°50' W 076°18'1 2.2
2017-Nov-15 10:59N 36°50' W 076°16'0 0.0
2017-Nov-15 10:21N 36°50' W 076°16'0 0.0
2017-Nov-15 09:38N 36°50' W 076°16'0 0.0
2017-Nov-15 09:15N 36°50' W 076°16'0 0.0
2017-Nov-15 08:57N 36°50' W 076°16'0 0.0
2017-Nov-15 08:27N 36°50' W 076°16'0 0.0
2017-Nov-15 07:51N 36°50' W 076°16'0 0.0
2017-Nov-15 07:27N 36°50' W 076°16'0 0.0
2017-Nov-15 06:51N 36°50' W 076°16'0 0.0
2017-Nov-15 06:15N 36°50' W 076°16'0 0.0
2017-Nov-15 05:51N 36°50' W 076°16'0 0.0
2017-Nov-15 05:27N 36°50' W 076°16'0 0.0
2017-Nov-15 04:50N 36°50' W 076°16'0 0.0
2017-Nov-15 04:27N 36°50' W 076°16'0 0.0
2017-Nov-15 03:57N 36°50' W 076°16'0 0.0
2017-Nov-15 03:26N 36°50' W 076°16'0 0.0
2017-Nov-15 02:59N 36°50' W 076°16'0 0.0
2017-Nov-15 01:50N 36°50' W 076°16'0 0.0
2017-Nov-15 01:20N 36°50' W 076°16'0 0.0
2017-Nov-15 00:57N 36°50' W 076°16'0 0.0
2017-Nov-15 00:21N 36°50' W 076°16'0 0.0
2017-Nov-14 23:56N 36°50' W 076°16'0 0.0
2017-Nov-14 23:14N 36°50' W 076°16'0 0.0
2017-Nov-14 22:56N 36°50' W 076°16'0 0.0
2017-Nov-14 22:26N 36°50' W 076°16'0 0.0
2017-Nov-14 21:26N 36°50' W 076°16'1 3.1
2017-Nov-14 21:00N 36°51' W 076°18'3 6.1
2017-Nov-14 20:30N 36°53' W 076°20'3 2.6
2017-Nov-14 19:23N 36°56' W 076°20'1 1.7
2017-Nov-14 18:52N 36°55' W 076°20'3 7.5
2017-Nov-14 18:30N 36°52' W 076°20'3 6.6
2017-Nov-14 18:00N 36°50' W 076°17'0 0.9
2017-Nov-14 17:30N 36°50' W 076°16'0 0.0
2017-Nov-14 17:00N 36°50' W 076°16'0 0.0
2017-Nov-14 16:30N 36°50' W 076°16'0 0.0
2017-Nov-14 16:00N 36°50' W 076°16'0 0.0
2017-Nov-14 15:30N 36°50' W 076°16'0 0.0
2017-Nov-14 15:00N 36°50' W 076°16'0 0.0
2017-Nov-14 14:30N 36°50' W 076°16'0 0.0
2017-Nov-14 14:00N 36°50' W 076°16'0 0.0
2017-Nov-14 13:30N 36°50' W 076°16'0 0.0
2017-Nov-14 13:00N 36°50' W 076°16'0 0.0
2017-Nov-14 12:30N 36°50' W 076°16'0 0.0
2017-Nov-14 12:00N 36°50' W 076°16'0 0.0
2017-Nov-14 11:30N 36°50' W 076°16'0 0.0
2017-Nov-14 10:48N 36°50' W 076°16'0 0.0
2017-Nov-14 10:30N 36°50' W 076°16'0 0.0
2017-Nov-14 10:00N 36°50' W 076°16'0 0.0
2017-Nov-14 09:30N 36°50' W 076°16'0 0.0
2017-Nov-14 09:00N 36°50' W 076°16'0 0.0
2017-Nov-14 08:30N 36°50' W 076°16'0 0.0
2017-Nov-14 08:00N 36°50' W 076°16'0 0.0
2017-Nov-14 07:30N 36°50' W 076°16'0 0.0
2017-Nov-14 07:00N 36°50' W 076°16'0 0.0
2017-Nov-14 06:30N 36°50' W 076°16'0 0.0
2017-Nov-14 06:00N 36°50' W 076°16'0 0.0
2017-Nov-14 05:30N 36°50' W 076°16'0 0.0
2017-Nov-14 05:00N 36°50' W 076°16'0 0.0
2017-Nov-14 04:30N 36°50' W 076°16'0 0.0
2017-Nov-14 04:00N 36°50' W 076°16'0 0.0
2017-Nov-14 03:30N 36°50' W 076°16'0 0.0
2017-Nov-14 03:00N 36°50' W 076°16'0 0.0
2017-Nov-14 02:30N 36°50' W 076°16'0 0.0
2017-Nov-14 02:00N 36°50' W 076°16'0 0.0
2017-Nov-14 01:30N 36°50' W 076°16'0 0.0
2017-Nov-14 01:00N 36°50' W 076°16'0 0.0
2017-Nov-14 00:30N 36°50' W 076°16'  

Dump ship's entire track history